sensor_id;sensor_type;location;lat;lon;timestamp;pressure;altitude;pressure_sealevel;temperature;humidity
73600;BME280;61877;48.246;9.220;2023-11-19T00:01:43;94145.69;;;5.27;100.00
73600;BME280;61877;48.246;9.220;2023-11-19T00:04:08;94147.75;;;5.30;100.00
73600;BME280;61877;48.246;9.220;2023-11-19T00:06:34;94159.94;;;5.31;100.00
73600;BME280;61877;48.246;9.220;2023-11-19T00:08:59;94168.91;;;5.35;100.00
73600;BME280;61877;48.246;9.220;2023-11-19T00:11:24;94159.72;;;5.41;100.00
73600;BME280;61877;48.246;9.220;2023-11-19T00:13:50;94151.25;;;5.39;100.00
73600;BME280;61877;48.246;9.220;2023-11-19T00:16:15;94141.22;;;5.36;100.00
73600;BME280;61877;48.246;9.220;2023-11-19T00:18:42;94130.88;;;5.35;100.00
73600;BME280;61877;48.246;9.220;2023-11-19T00:21:07;94127.41;;;5.34;100.00
73600;BME280;61877;48.246;9.220;2023-11-19T00:23:33;94129.00;;;5.35;100.00
73600;BME280;61877;48.246;9.220;2023-11-19T00:25:58;94131.66;;;5.35;100.00
73600;BME280;61877;48.246;9.220;2023-11-19T00:28:23;94125.25;;;5.36;100.00
73600;BME280;61877;48.246;9.220;2023-11-19T00:30:49;94117.44;;;5.40;100.00
73600;BME280;61877;48.246;9.220;2023-11-19T00:33:14;94115.41;;;5.37;100.00
73600;BME280;61877;48.246;9.220;2023-11-19T00:35:41;94116.19;;;5.37;100.00
73600;BME280;61877;48.246;9.220;2023-11-19T00:38:06;94116.66;;;5.39;100.00
73600;BME280;61877;48.246;9.220;2023-11-19T00:40:32;94112.94;;;5.40;100.00
73600;BME280;61877;48.246;9.220;2023-11-19T00:42:57;94106.06;;;5.48;100.00
73600;BME280;61877;48.246;9.220;2023-11-19T00:45:22;94099.50;;;5.45;100.00
73600;BME280;61877;48.246;9.220;2023-11-19T00:47:48;94096.84;;;5.45;100.00
73600;BME280;61877;48.246;9.220;2023-11-19T00:50:13;94085.94;;;5.55;100.00
73600;BME280;61877;48.246;9.220;2023-11-19T00:52:40;94096.72;;;5.50;100.00
73600;BME280;61877;48.246;9.220;2023-11-19T00:55:06;94097.03;;;5.49;100.00
73600;BME280;61877;48.246;9.220;2023-11-19T00:57:31;94080.25;;;5.48;100.00
73600;BME280;61877;48.246;9.220;2023-11-19T00:59:57;94064.16;;;5.53;100.00
73600;BME280;61877;48.246;9.220;2023-11-19T01:02:22;94072.75;;;5.50;100.00
73600;BME280;61877;48.246;9.220;2023-11-19T01:04:47;94069.34;;;5.58;100.00
73600;BME280;61877;48.246;9.220;2023-11-19T01:07:13;94072.69;;;5.64;100.00
73600;BME280;61877;48.246;9.220;2023-11-19T01:09:41;94067.19;;;5.60;100.00
73600;BME280;61877;48.246;9.220;2023-11-19T01:12:07;94066.75;;;5.67;100.00
73600;BME280;61877;48.246;9.220;2023-11-19T01:14:32;94063.78;;;5.68;100.00
73600;BME280;61877;48.246;9.220;2023-11-19T01:16:57;94063.59;;;5.65;100.00
73600;BME280;61877;48.246;9.220;2023-11-19T01:19:23;94062.34;;;5.71;100.00
73600;BME280;61877;48.246;9.220;2023-11-19T01:21:48;94075.47;;;5.67;100.00
73600;BME280;61877;48.246;9.220;2023-11-19T01:24:14;94082.22;;;5.65;100.00
73600;BME280;61877;48.246;9.220;2023-11-19T01:26:41;94086.25;;;5.62;100.00
73600;BME280;61877;48.246;9.220;2023-11-19T01:29:06;94073.28;;;5.61;100.00
73600;BME280;61877;48.246;9.220;2023-11-19T01:31:31;94075.63;;;5.62;100.00
73600;BME280;61877;48.246;9.220;2023-11-19T01:33:57;94067.94;;;5.61;100.00
73600;BME280;61877;48.246;9.220;2023-11-19T01:36:22;94061.56;;;5.62;100.00
73600;BME280;61877;48.246;9.220;2023-11-19T01:38:47;94042.97;;;5.70;100.00
73600;BME280;61877;48.246;9.220;2023-11-19T01:41:13;94048.75;;;5.72;100.00
73600;BME280;61877;48.246;9.220;2023-11-19T01:43:39;94048.16;;;5.75;100.00
73600;BME280;61877;48.246;9.220;2023-11-19T01:46:06;94043.91;;;5.74;100.00
73600;BME280;61877;48.246;9.220;2023-11-19T01:48:33;94042.81;;;5.75;100.00
73600;BME280;61877;48.246;9.220;2023-11-19T01:50:59;94042.50;;;5.77;100.00
73600;BME280;61877;48.246;9.220;2023-11-19T01:53:26;94033.59;;;5.81;100.00
73600;BME280;61877;48.246;9.220;2023-11-19T01:55:52;94026.22;;;5.78;100.00
73600;BME280;61877;48.246;9.220;2023-11-19T01:58:18;94023.75;;;5.82;100.00
73600;BME280;61877;48.246;9.220;2023-11-19T02:00:45;94022.34;;;5.84;100.00
73600;BME280;61877;48.246;9.220;2023-11-19T02:03:11;94032.88;;;5.89;100.00
73600;BME280;61877;48.246;9.220;2023-11-19T02:05:37;94040.84;;;5.89;100.00
73600;BME280;61877;48.246;9.220;2023-11-19T02:08:04;94023.50;;;5.92;100.00
73600;BME280;61877;48.246;9.220;2023-11-19T02:10:29;94036.00;;;5.91;100.00
73600;BME280;61877;48.246;9.220;2023-11-19T02:12:55;94028.38;;;5.98;100.00
73600;BME280;61877;48.246;9.220;2023-11-19T02:15:20;94027.56;;;5.98;100.00
73600;BME280;61877;48.246;9.220;2023-11-19T02:17:47;94023.50;;;6.00;100.00
73600;BME280;61877;48.246;9.220;2023-11-19T02:20:12;94013.63;;;6.01;100.00
73600;BME280;61877;48.246;9.220;2023-11-19T02:22:38;94005.94;;;5.99;100.00
73600;BME280;61877;48.246;9.220;2023-11-19T02:25:06;94009.72;;;5.98;100.00
73600;BME280;61877;48.246;9.220;2023-11-19T02:27:44;94009.56;;;6.03;100.00
73600;BME280;61877;48.246;9.220;2023-11-19T02:30:11;94008.47;;;6.04;100.00
73600;BME280;61877;48.246;9.220;2023-11-19T02:32:36;94000.50;;;6.13;100.00
73600;BME280;61877;48.246;9.220;2023-11-19T02:35:02;94005.03;;;6.12;100.00
73600;BME280;61877;48.246;9.220;2023-11-19T02:37:27;94002.84;;;6.14;100.00
73600;BME280;61877;48.246;9.220;2023-11-19T02:39:52;93999.25;;;6.19;100.00
73600;BME280;61877;48.246;9.220;2023-11-19T02:42:18;94000.03;;;6.19;100.00
73600;BME280;61877;48.246;9.220;2023-11-19T02:44:45;93996.59;;;6.19;100.00
73600;BME280;61877;48.246;9.220;2023-11-19T02:47:10;93998.47;;;6.18;100.00
73600;BME280;61877;48.246;9.220;2023-11-19T02:49:36;94001.75;;;6.15;100.00
73600;BME280;61877;48.246;9.220;2023-11-19T02:52:05;93991.88;;;6.16;100.00
73600;BME280;61877;48.246;9.220;2023-11-19T02:54:30;93991.25;;;6.19;100.00
73600;BME280;61877;48.246;9.220;2023-11-19T02:56:56;93990.94;;;6.20;100.00
73600;BME280;61877;48.246;9.220;2023-11-19T02:59:21;93998.63;;;6.22;100.00
73600;BME280;61877;48.246;9.220;2023-11-19T03:01:48;93998.78;;;6.25;100.00
73600;BME280;61877;48.246;9.220;2023-11-19T03:04:13;93999.25;;;6.27;100.00
73600;BME280;61877;48.246;9.220;2023-11-19T03:06:38;93994.88;;;6.31;100.00
73600;BME280;61877;48.246;9.220;2023-11-19T03:09:04;93989.09;;;6.29;100.00
73600;BME280;61877;48.246;9.220;2023-11-19T03:11:29;93995.81;;;6.35;100.00
73600;BME280;61877;48.246;9.220;2023-11-19T03:13:55;93996.28;;;6.37;100.00
73600;BME280;61877;48.246;9.220;2023-11-19T03:16:20;94001.16;;;6.35;100.00
73600;BME280;61877;48.246;9.220;2023-11-19T03:18:47;94003.66;;;6.40;100.00
73600;BME280;61877;48.246;9.220;2023-11-19T03:21:12;93987.50;;;6.45;100.00
73600;BME280;61877;48.246;9.220;2023-11-19T03:23:37;93994.44;;;6.46;100.00
73600;BME280;61877;48.246;9.220;2023-11-19T03:26:03;93998.66;;;6.47;100.00
73600;BME280;61877;48.246;9.220;2023-11-19T03:28:29;94006.81;;;6.51;100.00
73600;BME280;61877;48.246;9.220;2023-11-19T03:30:54;93998.81;;;6.60;100.00
73600;BME280;61877;48.246;9.220;2023-11-19T03:33:20;94001.78;;;6.58;100.00
73600;BME280;61877;48.246;9.220;2023-11-19T03:35:46;94012.59;;;6.53;100.00
73600;BME280;61877;48.246;9.220;2023-11-19T03:38:12;94011.97;;;6.56;100.00
73600;BME280;61877;48.246;9.220;2023-11-19T03:40:37;94012.59;;;6.62;100.00
73600;BME280;61877;48.246;9.220;2023-11-19T03:43:02;94010.41;;;6.64;100.00
73600;BME280;61877;48.246;9.220;2023-11-19T03:45:28;94007.25;;;6.62;100.00
73600;BME280;61877;48.246;9.220;2023-11-19T03:47:53;94003.03;;;6.61;100.00
73600;BME280;61877;48.246;9.220;2023-11-19T03:50:19;94006.34;;;6.57;100.00
73600;BME280;61877;48.246;9.220;2023-11-19T03:52:45;94008.38;;;6.61;100.00
73600;BME280;61877;48.246;9.220;2023-11-19T03:55:11;94009.75;;;6.67;100.00
73600;BME280;61877;48.246;9.220;2023-11-19T03:57:36;94004.75;;;6.65;100.00
73600;BME280;61877;48.246;9.220;2023-11-19T04:00:02;94004.44;;;6.67;100.00
73600;BME280;61877;48.246;9.220;2023-11-19T04:02:28;94015.41;;;6.74;100.00
73600;BME280;61877;48.246;9.220;2023-11-19T04:04:54;94011.34;;;6.76;100.00
73600;BME280;61877;48.246;9.220;2023-11-19T04:07:19;94013.69;;;6.78;100.00
73600;BME280;61877;48.246;9.220;2023-11-19T04:09:46;94004.13;;;6.77;100.00
73600;BME280;61877;48.246;9.220;2023-11-19T04:12:11;94022.78;;;6.94;100.00
73600;BME280;61877;48.246;9.220;2023-11-19T04:14:37;94015.41;;;6.91;100.00
73600;BME280;61877;48.246;9.220;2023-11-19T04:17:02;94020.75;;;6.91;100.00
73600;BME280;61877;48.246;9.220;2023-11-19T04:19:28;94007.56;;;6.86;100.00
73600;BME280;61877;48.246;9.220;2023-11-19T04:21:53;94006.47;;;6.87;100.00
73600;BME280;61877;48.246;9.220;2023-11-19T04:24:18;94014.47;;;6.87;100.00
73600;BME280;61877;48.246;9.220;2023-11-19T04:26:46;94026.72;;;6.88;100.00
73600;BME280;61877;48.246;9.220;2023-11-19T04:29:12;94033.44;;;6.94;100.00
73600;BME280;61877;48.246;9.220;2023-11-19T04:31:38;94028.25;;;6.97;100.00
73600;BME280;61877;48.246;9.220;2023-11-19T04:34:03;94026.22;;;6.94;100.00
73600;BME280;61877;48.246;9.220;2023-11-19T04:36:29;94020.91;;;6.94;100.00
73600;BME280;61877;48.246;9.220;2023-11-19T04:38:57;94030.94;;;6.97;100.00
73600;BME280;61877;48.246;9.220;2023-11-19T04:41:22;94029.84;;;6.90;100.00
73600;BME280;61877;48.246;9.220;2023-11-19T04:43:49;94027.63;;;6.92;100.00
73600;BME280;61877;48.246;9.220;2023-11-19T04:46:14;94028.56;;;6.96;100.00
73600;BME280;61877;48.246;9.220;2023-11-19T04:48:40;94025.44;;;6.94;100.00
73600;BME280;61877;48.246;9.220;2023-11-19T04:51:05;94030.63;;;6.90;100.00
73600;BME280;61877;48.246;9.220;2023-11-19T04:53:31;94032.47;;;6.98;100.00
73600;BME280;61877;48.246;9.220;2023-11-19T04:55:56;94020.09;;;6.94;100.00
73600;BME280;61877;48.246;9.220;2023-11-19T04:58:22;94013.69;;;6.95;100.00
73600;BME280;61877;48.246;9.220;2023-11-19T05:00:48;94010.22;;;7.03;100.00
73600;BME280;61877;48.246;9.220;2023-11-19T05:03:14;94008.97;;;7.00;100.00
73600;BME280;61877;48.246;9.220;2023-11-19T05:05:39;94022.75;;;7.02;100.00
73600;BME280;61877;48.246;9.220;2023-11-19T05:08:04;94042.53;;;7.01;100.00
73600;BME280;61877;48.246;9.220;2023-11-19T05:10:30;94026.22;;;7.03;100.00
73600;BME280;61877;48.246;9.220;2023-11-19T05:12:55;94024.00;;;7.05;100.00
73600;BME280;61877;48.246;9.220;2023-11-19T05:15:20;94031.25;;;7.04;100.00
73600;BME280;61877;48.246;9.220;2023-11-19T05:17:47;94035.00;;;7.03;100.00
73600;BME280;61877;48.246;9.220;2023-11-19T05:20:13;94029.97;;;7.02;100.00
73600;BME280;61877;48.246;9.220;2023-11-19T05:22:39;94020.41;;;7.01;100.00
73600;BME280;61877;48.246;9.220;2023-11-19T05:25:05;94030.28;;;7.00;100.00
73600;BME280;61877;48.246;9.220;2023-11-19T05:27:30;94044.09;;;7.02;100.00
73600;BME280;61877;48.246;9.220;2023-11-19T05:29:56;94039.56;;;7.03;100.00
73600;BME280;61877;48.246;9.220;2023-11-19T05:32:21;94040.78;;;7.05;100.00
73600;BME280;61877;48.246;9.220;2023-11-19T05:34:48;94039.06;;;7.09;100.00
73600;BME280;61877;48.246;9.220;2023-11-19T05:37:13;94037.63;;;7.20;100.00
73600;BME280;61877;48.246;9.220;2023-11-19T05:39:38;94037.66;;;7.12;100.00
73600;BME280;61877;48.246;9.220;2023-11-19T05:42:04;94029.16;;;7.10;100.00
73600;BME280;61877;48.246;9.220;2023-11-19T05:44:29;94030.28;;;7.09;100.00
73600;BME280;61877;48.246;9.220;2023-11-19T05:46:55;94029.16;;;7.10;100.00
73600;BME280;61877;48.246;9.220;2023-11-19T05:49:20;94026.81;;;7.08;100.00
73600;BME280;61877;48.246;9.220;2023-11-19T05:51:47;94041.91;;;7.04;100.00
73600;BME280;61877;48.246;9.220;2023-11-19T05:54:12;94032.63;;;7.02;100.00
73600;BME280;61877;48.246;9.220;2023-11-19T05:56:38;94043.47;;;7.05;100.00
73600;BME280;61877;48.246;9.220;2023-11-19T05:59:03;94047.09;;;7.01;100.00
73600;BME280;61877;48.246;9.220;2023-11-19T06:01:28;94050.06;;;6.99;100.00
73600;BME280;61877;48.246;9.220;2023-11-19T06:03:54;94052.25;;;6.97;100.00
73600;BME280;61877;48.246;9.220;2023-11-19T06:06:19;94047.72;;;6.98;100.00
73600;BME280;61877;48.246;9.220;2023-11-19T06:08:46;94050.84;;;7.00;100.00
73600;BME280;61877;48.246;9.220;2023-11-19T06:11:11;94043.78;;;6.95;100.00
73600;BME280;61877;48.246;9.220;2023-11-19T06:13:37;94049.13;;;6.95;100.00
73600;BME280;61877;48.246;9.220;2023-11-19T06:16:03;94051.47;;;6.97;100.00
73600;BME280;61877;48.246;9.220;2023-11-19T06:18:28;94040.81;;;6.97;100.00
73600;BME280;61877;48.246;9.220;2023-11-19T06:20:54;94043.78;;;6.95;100.00
73600;BME280;61877;48.246;9.220;2023-11-19T06:23:19;94039.25;;;6.96;100.00
73600;BME280;61877;48.246;9.220;2023-11-19T06:25:46;94037.69;;;6.95;100.00
73600;BME280;61877;48.246;9.220;2023-11-19T06:28:11;94037.69;;;6.95;100.00
73600;BME280;61877;48.246;9.220;2023-11-19T06:30:37;94043.78;;;6.95;100.00
73600;BME280;61877;48.246;9.220;2023-11-19T06:33:02;94048.34;;;6.95;100.00
73600;BME280;61877;48.246;9.220;2023-11-19T06:35:28;94051.47;;;6.97;100.00
73600;BME280;61877;48.246;9.220;2023-11-19T06:37:53;94059.94;;;6.99;100.00
73600;BME280;61877;48.246;9.220;2023-11-19T06:40:18;94051.63;;;7.00;100.00
73600;BME280;61877;48.246;9.220;2023-11-19T06:42:45;94064.16;;;7.00;100.00
73600;BME280;61877;48.246;9.220;2023-11-19T06:45:11;94059.78;;;7.04;100.00
73600;BME280;61877;48.246;9.220;2023-11-19T06:47:36;94062.28;;;7.09;100.00
73600;BME280;61877;48.246;9.220;2023-11-19T06:50:02;94060.41;;;7.09;100.00
73600;BME280;61877;48.246;9.220;2023-11-19T06:52:28;94057.91;;;7.13;100.00
73600;BME280;61877;48.246;9.220;2023-11-19T06:54:53;94062.91;;;7.14;100.00
73600;BME280;61877;48.246;9.220;2023-11-19T06:57:18;94061.81;;;7.15;100.00
73600;BME280;61877;48.246;9.220;2023-11-19T06:59:45;94061.03;;;7.15;100.00
73600;BME280;61877;48.246;9.220;2023-11-19T07:02:10;94064.16;;;7.17;100.00
73600;BME280;61877;48.246;9.220;2023-11-19T07:04:36;94070.75;;;7.19;100.00
73600;BME280;61877;48.246;9.220;2023-11-19T07:07:01;94068.84;;;7.20;100.00
73600;BME280;61877;48.246;9.220;2023-11-19T07:09:27;94081.59;;;7.23;100.00
73600;BME280;61877;48.246;9.220;2023-11-19T07:11:52;94072.78;;;7.22;100.00
73600;BME280;61877;48.246;9.220;2023-11-19T07:14:18;94085.50;;;7.25;100.00
73600;BME280;61877;48.246;9.220;2023-11-19T07:16:45;94081.09;;;7.29;100.00
73600;BME280;61877;48.246;9.220;2023-11-19T07:19:11;94078.88;;;7.31;100.00
73600;BME280;61877;48.246;9.220;2023-11-19T07:21:41;94079.69;;;7.32;100.00
73600;BME280;61877;48.246;9.220;2023-11-19T07:24:06;94081.25;;;7.33;100.00
73600;BME280;61877;48.246;9.220;2023-11-19T07:26:32;94078.88;;;7.40;100.00
73600;BME280;61877;48.246;9.220;2023-11-19T07:28:57;94088.78;;;7.39;100.00
73600;BME280;61877;48.246;9.220;2023-11-19T07:31:23;94080.28;;;7.46;100.00
73600;BME280;61877;48.246;9.220;2023-11-19T07:33:50;94082.78;;;7.51;100.00
73600;BME280;61877;48.246;9.220;2023-11-19T07:36:16;94089.22;;;7.50;100.00
73600;BME280;61877;48.246;9.220;2023-11-19T07:38:41;94090.47;;;7.52;100.00
73600;BME280;61877;48.246;9.220;2023-11-19T07:41:07;94079.81;;;7.52;100.00
73600;BME280;61877;48.246;9.220;2023-11-19T07:43:32;94088.91;;;7.51;100.00
73600;BME280;61877;48.246;9.220;2023-11-19T07:45:58;94100.03;;;7.53;100.00
73600;BME280;61877;48.246;9.220;2023-11-19T07:48:23;94110.25;;;7.60;100.00
73600;BME280;61877;48.246;9.220;2023-11-19T07:50:50;94113.69;;;7.60;100.00
73600;BME280;61877;48.246;9.220;2023-11-19T07:53:16;94116.03;;;7.62;100.00
73600;BME280;61877;48.246;9.220;2023-11-19T07:55:41;94120.91;;;7.68;100.00
73600;BME280;61877;48.246;9.220;2023-11-19T07:58:06;94127.78;;;7.69;100.00
73600;BME280;61877;48.246;9.220;2023-11-19T08:00:32;94125.75;;;7.75;100.00
73600;BME280;61877;48.246;9.220;2023-11-19T08:02:57;94118.84;;;7.74;100.00
73600;BME280;61877;48.246;9.220;2023-11-19T08:05:23;94115.88;;;7.75;100.00
73600;BME280;61877;48.246;9.220;2023-11-19T08:07:50;94111.28;;;7.76;100.00
73600;BME280;61877;48.246;9.220;2023-11-19T08:10:15;94102.50;;;7.75;100.00
73600;BME280;61877;48.246;9.220;2023-11-19T08:12:40;94106.88;;;7.80;100.00
73600;BME280;61877;48.246;9.220;2023-11-19T08:15:06;94105.59;;;7.86;100.00
73600;BME280;61877;48.246;9.220;2023-11-19T08:17:32;94111.41;;;7.88;100.00
73600;BME280;61877;48.246;9.220;2023-11-19T08:19:57;94105.00;;;7.89;100.00
73600;BME280;61877;48.246;9.220;2023-11-19T08:22:23;94112.22;;;7.88;100.00
73600;BME280;61877;48.246;9.220;2023-11-19T08:24:49;94108.44;;;7.89;100.00
73600;BME280;61877;48.246;9.220;2023-11-19T08:27:15;94105.00;;;7.89;100.00
73600;BME280;61877;48.246;9.220;2023-11-19T08:29:40;94109.22;;;7.90;100.00
73600;BME280;61877;48.246;9.220;2023-11-19T08:32:06;94112.34;;;7.92;100.00
73600;BME280;61877;48.246;9.220;2023-11-19T08:34:31;94109.84;;;7.96;100.00
73600;BME280;61877;48.246;9.220;2023-11-19T08:36:57;94120.53;;;7.96;100.00
73600;BME280;61877;48.246;9.220;2023-11-19T08:39:22;94116.41;;;7.98;100.00
73600;BME280;61877;48.246;9.220;2023-11-19T08:41:49;94119.09;;;7.98;100.00
73600;BME280;61877;48.246;9.220;2023-11-19T08:44:14;94119.09;;;7.98;100.00
73600;BME280;61877;48.246;9.220;2023-11-19T08:46:46;94119.22;;;8.02;100.00
73600;BME280;61877;48.246;9.220;2023-11-19T08:49:14;94123.94;;;8.05;100.00
73600;BME280;61877;48.246;9.220;2023-11-19T08:51:40;94134.91;;;8.12;100.00
73600;BME280;61877;48.246;9.220;2023-11-19T08:54:05;94135.69;;;8.12;100.00
73600;BME280;61877;48.246;9.220;2023-11-19T08:56:31;94130.81;;;8.14;100.00
73600;BME280;61877;48.246;9.220;2023-11-19T08:58:58;94130.50;;;8.16;100.00
73600;BME280;61877;48.246;9.220;2023-11-19T09:01:23;94132.69;;;8.22;100.00
73600;BME280;61877;48.246;9.220;2023-11-19T09:03:48;94135.06;;;8.24;100.00
73600;BME280;61877;48.246;9.220;2023-11-19T09:06:14;94135.19;;;8.27;100.00
73600;BME280;61877;48.246;9.220;2023-11-19T09:08:39;94132.22;;;8.29;100.00
73600;BME280;61877;48.246;9.220;2023-11-19T09:11:07;94123.53;;;8.32;100.00
73600;BME280;61877;48.246;9.220;2023-11-19T09:13:32;94125.88;;;8.33;100.00
73600;BME280;61877;48.246;9.220;2023-11-19T09:15:59;94129.63;;;8.41;100.00
73600;BME280;61877;48.246;9.220;2023-11-19T09:18:24;94115.16;;;8.42;100.00
73600;BME280;61877;48.246;9.220;2023-11-19T09:20:50;94118.69;;;8.54;100.00
73600;BME280;61877;48.246;9.220;2023-11-19T09:23:15;94125.69;;;8.67;100.00
73600;BME280;61877;48.246;9.220;2023-11-19T09:25:41;94131.94;;;9.00;100.00
73600;BME280;61877;48.246;9.220;2023-11-19T09:28:06;94126.00;;;9.36;100.00
73600;BME280;61877;48.246;9.220;2023-11-19T09:30:31;94135.84;;;9.77;100.00
73600;BME280;61877;48.246;9.220;2023-11-19T09:32:58;94130.09;;;9.99;100.00
73600;BME280;61877;48.246;9.220;2023-11-19T09:35:24;94131.91;;;10.07;100.00
73600;BME280;61877;48.246;9.220;2023-11-19T09:37:49;94140.69;;;10.52;100.00
73600;BME280;61877;48.246;9.220;2023-11-19T09:40:14;94136.56;;;10.43;100.00
73600;BME280;61877;48.246;9.220;2023-11-19T09:42:43;94137.13;;;10.48;100.00
73600;BME280;61877;48.246;9.220;2023-11-19T09:45:13;94129.19;;;10.52;100.00
73600;BME280;61877;48.246;9.220;2023-11-19T09:47:39;94131.66;;;10.32;100.00
73600;BME280;61877;48.246;9.220;2023-11-19T09:50:06;94127.50;;;10.71;100.00
73600;BME280;61877;48.246;9.220;2023-11-19T09:52:32;94121.66;;;11.05;100.00
73600;BME280;61877;48.246;9.220;2023-11-19T09:54:57;94111.25;;;11.99;100.00
73600;BME280;61877;48.246;9.220;2023-11-19T09:57:23;94116.25;;;13.28;98.91
73600;BME280;61877;48.246;9.220;2023-11-19T09:59:49;94115.03;;;13.60;95.56
73600;BME280;61877;48.246;9.220;2023-11-19T10:02:16;94100.09;;;13.85;93.89
73600;BME280;61877;48.246;9.220;2023-11-19T10:04:42;94104.94;;;13.95;90.75
73600;BME280;61877;48.246;9.220;2023-11-19T10:07:10;94114.72;;;13.27;95.06
73600;BME280;61877;48.246;9.220;2023-11-19T10:09:35;94108.53;;;13.27;95.11
73600;BME280;61877;48.246;9.220;2023-11-19T10:12:00;94107.38;;;12.58;98.77
73600;BME280;61877;48.246;9.220;2023-11-19T10:14:27;94098.50;;;12.58;100.00
73600;BME280;61877;48.246;9.220;2023-11-19T10:16:54;94098.69;;;12.34;100.00
73600;BME280;61877;48.246;9.220;2023-11-19T10:19:20;94094.97;;;13.04;100.00
73600;BME280;61877;48.246;9.220;2023-11-19T10:21:45;94091.09;;;13.02;100.00
73600;BME280;61877;48.246;9.220;2023-11-19T10:24:12;94084.72;;;13.10;99.27
73600;BME280;61877;48.246;9.220;2023-11-19T10:26:38;94071.75;;;14.37;89.87
73600;BME280;61877;48.246;9.220;2023-11-19T10:29:03;94083.47;;;13.61;93.85
73600;BME280;61877;48.246;9.220;2023-11-19T10:31:29;94074.38;;;13.31;96.63
73600;BME280;61877;48.246;9.220;2023-11-19T10:33:54;94085.69;;;12.86;99.66
73600;BME280;61877;48.246;9.220;2023-11-19T10:36:20;94071.44;;;12.35;100.00
73600;BME280;61877;48.246;9.220;2023-11-19T10:38:52;94076.47;;;12.21;100.00
73600;BME280;61877;48.246;9.220;2023-11-19T10:41:27;94075.22;;;11.88;100.00
73600;BME280;61877;48.246;9.220;2023-11-19T10:43:53;94076.31;;;11.99;100.00
73600;BME280;61877;48.246;9.220;2023-11-19T10:46:18;94066.34;;;12.15;100.00
73600;BME280;61877;48.246;9.220;2023-11-19T10:48:44;94073.53;;;12.26;100.00
73600;BME280;61877;48.246;9.220;2023-11-19T10:51:09;94067.59;;;13.78;100.00
73600;BME280;61877;48.246;9.220;2023-11-19T10:53:36;94067.53;;;13.94;95.41
73600;BME280;61877;48.246;9.220;2023-11-19T10:56:06;94065.63;;;13.75;96.69
73600;BME280;61877;48.246;9.220;2023-11-19T10:58:35;94061.63;;;13.28;96.90
73600;BME280;61877;48.246;9.220;2023-11-19T11:01:02;94053.84;;;12.88;99.10
73600;BME280;61877;48.246;9.220;2023-11-19T11:03:31;94047.28;;;12.54;100.00
73600;BME280;61877;48.246;9.220;2023-11-19T11:05:57;94043.84;;;12.38;100.00
73600;BME280;61877;48.246;9.220;2023-11-19T11:08:22;94047.44;;;12.27;100.00
73600;BME280;61877;48.246;9.220;2023-11-19T11:10:52;94045.53;;;12.12;100.00
73600;BME280;61877;48.246;9.220;2023-11-19T11:13:18;94042.75;;;12.08;100.00
73600;BME280;61877;48.246;9.220;2023-11-19T11:15:46;94048.72;;;12.02;100.00
73600;BME280;61877;48.246;9.220;2023-11-19T11:18:12;94046.09;;;11.90;100.00
73600;BME280;61877;48.246;9.220;2023-11-19T11:20:38;94039.53;;;11.87;100.00
73600;BME280;61877;48.246;9.220;2023-11-19T11:23:25;94039.69;;;11.94;100.00
73600;BME280;61877;48.246;9.220;2023-11-19T11:26:03;94033.19;;;12.11;100.00
73600;BME280;61877;48.246;9.220;2023-11-19T11:28:38;94039.72;;;12.25;100.00
73600;BME280;61877;48.246;9.220;2023-11-19T11:31:18;94031.16;;;12.54;100.00
73600;BME280;61877;48.246;9.220;2023-11-19T11:34:03;94031.44;;;12.34;100.00
73600;BME280;61877;48.246;9.220;2023-11-19T11:36:36;94035.44;;;12.40;100.00
73600;BME280;61877;48.246;9.220;2023-11-19T11:39:06;94036.44;;;12.51;100.00
73600;BME280;61877;48.246;9.220;2023-11-19T11:41:33;94036.38;;;12.47;100.00
73600;BME280;61877;48.246;9.220;2023-11-19T11:43:58;94024.06;;;12.46;100.00
73600;BME280;61877;48.246;9.220;2023-11-19T11:46:54;94029.44;;;12.46;100.00
73600;BME280;61877;48.246;9.220;2023-11-19T11:49:26;94035.66;;;12.50;100.00
73600;BME280;61877;48.246;9.220;2023-11-19T11:52:02;94035.19;;;12.64;100.00
73600;BME280;61877;48.246;9.220;2023-11-19T11:54:29;94031.84;;;13.21;100.00
73600;BME280;61877;48.246;9.220;2023-11-19T11:57:02;94024.34;;;12.95;100.00
73600;BME280;61877;48.246;9.220;2023-11-19T11:59:36;94021.56;;;13.07;100.00
73600;BME280;61877;48.246;9.220;2023-11-19T12:02:21;94017.00;;;13.49;99.86
73600;BME280;61877;48.246;9.220;2023-11-19T12:04:47;94017.22;;;13.41;100.00
73600;BME280;61877;48.246;9.220;2023-11-19T12:07:18;94011.94;;;14.57;93.42
73600;BME280;61877;48.246;9.220;2023-11-19T12:09:52;94016.28;;;14.39;94.51
73600;BME280;61877;48.246;9.220;2023-11-19T12:12:19;94010.84;;;16.27;88.13
73600;BME280;61877;48.246;9.220;2023-11-19T12:15:10;94006.81;;;16.07;84.50
73600;BME280;61877;48.246;9.220;2023-11-19T12:17:58;94007.25;;;16.60;80.84
73600;BME280;61877;48.246;9.220;2023-11-19T12:20:25;94020.75;;;18.28;73.49
73600;BME280;61877;48.246;9.220;2023-11-19T12:22:53;94002.97;;;20.93;63.50
73600;BME280;61877;48.246;9.220;2023-11-19T12:25:19;93996.22;;;22.62;56.20
73600;BME280;61877;48.246;9.220;2023-11-19T12:27:46;93979.41;;;24.76;48.86
73600;BME280;61877;48.246;9.220;2023-11-19T12:30:12;93993.53;;;24.42;45.82
73600;BME280;61877;48.246;9.220;2023-11-19T12:32:39;94005.13;;;22.40;45.66
73600;BME280;61877;48.246;9.220;2023-11-19T12:35:06;93993.41;;;21.19;50.49
73600;BME280;61877;48.246;9.220;2023-11-19T12:37:32;93990.13;;;19.88;52.71
73600;BME280;61877;48.246;9.220;2023-11-19T12:39:57;93992.50;;;19.79;53.76
73600;BME280;61877;48.246;9.220;2023-11-19T12:42:35;93994.00;;;18.58;57.81
73600;BME280;61877;48.246;9.220;2023-11-19T12:45:00;94002.41;;;17.62;58.09
73600;BME280;61877;48.246;9.220;2023-11-19T12:47:25;93996.94;;;16.83;62.03
73600;BME280;61877;48.246;9.220;2023-11-19T12:49:57;94006.72;;;15.60;67.05
73600;BME280;61877;48.246;9.220;2023-11-19T12:52:24;94006.66;;;15.23;72.74
73600;BME280;61877;48.246;9.220;2023-11-19T12:54:50;94007.03;;;15.22;73.73
73600;BME280;61877;48.246;9.220;2023-11-19T12:57:15;94005.16;;;15.59;68.31